sensor_id;sensor_type;location;lat;lon;timestamp;P1;durP1;ratioP1;P2;durP2;ratioP2
49738;SDS011;53662;50.114;8.626;2023-12-28T00:00:09;8.57;;;5.38;;
49738;SDS011;53662;50.114;8.626;2023-12-28T00:02:35;9.73;;;5.60;;
49738;SDS011;53662;50.114;8.626;2023-12-28T00:05:01;8.90;;;4.60;;
49738;SDS011;53662;50.114;8.626;2023-12-28T00:07:27;6.90;;;4.68;;
49738;SDS011;53662;50.114;8.626;2023-12-28T00:09:53;9.48;;;5.00;;
49738;SDS011;53662;50.114;8.626;2023-12-28T00:12:19;8.23;;;5.10;;
49738;SDS011;53662;50.114;8.626;2023-12-28T00:14:45;8.05;;;4.60;;
49738;SDS011;53662;50.114;8.626;2023-12-28T00:17:11;9.25;;;4.68;;
49738;SDS011;53662;50.114;8.626;2023-12-28T00:19:36;7.25;;;4.55;;
49738;SDS011;53662;50.114;8.626;2023-12-28T00:22:02;6.80;;;4.18;;
49738;SDS011;53662;50.114;8.626;2023-12-28T00:24:28;7.50;;;4.00;;
49738;SDS011;53662;50.114;8.626;2023-12-28T00:26:54;7.05;;;4.50;;
49738;SDS011;53662;50.114;8.626;2023-12-28T00:29:20;10.70;;;4.03;;
49738;SDS011;53662;50.114;8.626;2023-12-28T00:31:46;4.72;;;3.70;;
49738;SDS011;53662;50.114;8.626;2023-12-28T00:34:12;7.05;;;4.55;;
49738;SDS011;53662;50.114;8.626;2023-12-28T00:36:38;5.68;;;3.90;;
49738;SDS011;53662;50.114;8.626;2023-12-28T00:39:04;8.20;;;3.70;;
49738;SDS011;53662;50.114;8.626;2023-12-28T00:41:30;5.75;;;4.22;;
49738;SDS011;53662;50.114;8.626;2023-12-28T00:43:56;8.60;;;3.97;;
49738;SDS011;53662;50.114;8.626;2023-12-28T00:46:21;7.32;;;4.05;;
49738;SDS011;53662;50.114;8.626;2023-12-28T00:48:47;11.35;;;4.68;;
49738;SDS011;53662;50.114;8.626;2023-12-28T00:51:13;7.43;;;4.45;;
49738;SDS011;53662;50.114;8.626;2023-12-28T00:53:39;7.18;;;4.35;;
49738;SDS011;53662;50.114;8.626;2023-12-28T00:56:05;8.95;;;3.90;;
49738;SDS011;53662;50.114;8.626;2023-12-28T00:58:32;8.82;;;4.07;;
49738;SDS011;53662;50.114;8.626;2023-12-28T01:00:58;7.63;;;3.30;;
49738;SDS011;53662;50.114;8.626;2023-12-28T01:03:23;6.88;;;4.18;;
49738;SDS011;53662;50.114;8.626;2023-12-28T01:05:50;5.60;;;4.32;;
49738;SDS011;53662;50.114;8.626;2023-12-28T01:08:17;4.53;;;3.97;;
49738;SDS011;53662;50.114;8.626;2023-12-28T01:10:43;11.73;;;4.07;;
49738;SDS011;53662;50.114;8.626;2023-12-28T01:13:09;7.15;;;3.90;;
49738;SDS011;53662;50.114;8.626;2023-12-28T01:15:35;7.82;;;4.13;;
49738;SDS011;53662;50.114;8.626;2023-12-28T01:18:01;8.40;;;4.00;;
49738;SDS011;53662;50.114;8.626;2023-12-28T01:20:27;7.53;;;3.83;;
49738;SDS011;53662;50.114;8.626;2023-12-28T01:22:53;10.20;;;4.20;;
49738;SDS011;53662;50.114;8.626;2023-12-28T01:25:19;4.68;;;4.22;;
49738;SDS011;53662;50.114;8.626;2023-12-28T01:27:45;6.32;;;3.50;;
49738;SDS011;53662;50.114;8.626;2023-12-28T01:30:11;6.22;;;3.90;;
49738;SDS011;53662;50.114;8.626;2023-12-28T01:32:37;9.60;;;4.32;;
49738;SDS011;53662;50.114;8.626;2023-12-28T01:35:03;5.32;;;4.20;;
49738;SDS011;53662;50.114;8.626;2023-12-28T01:37:29;4.97;;;4.05;;
49738;SDS011;53662;50.114;8.626;2023-12-28T01:39:56;8.32;;;4.65;;
49738;SDS011;53662;50.114;8.626;2023-12-28T01:42:22;8.00;;;3.63;;
49738;SDS011;53662;50.114;8.626;2023-12-28T01:44:48;5.03;;;4.07;;
49738;SDS011;53662;50.114;8.626;2023-12-28T01:47:14;6.28;;;4.22;;
49738;SDS011;53662;50.114;8.626;2023-12-28T01:49:40;4.45;;;4.05;;
49738;SDS011;53662;50.114;8.626;2023-12-28T01:52:06;8.52;;;4.15;;
49738;SDS011;53662;50.114;8.626;2023-12-28T01:54:33;5.35;;;4.15;;
49738;SDS011;53662;50.114;8.626;2023-12-28T01:56:59;4.25;;;3.83;;
49738;SDS011;53662;50.114;8.626;2023-12-28T01:59:26;7.75;;;3.88;;
49738;SDS011;53662;50.114;8.626;2023-12-28T02:01:52;3.88;;;3.55;;
49738;SDS011;53662;50.114;8.626;2023-12-28T02:04:18;5.78;;;3.58;;
49738;SDS011;53662;50.114;8.626;2023-12-28T02:06:51;7.43;;;4.90;;
49738;SDS011;53662;50.114;8.626;2023-12-28T02:09:17;7.13;;;4.10;;
49738;SDS011;53662;50.114;8.626;2023-12-28T02:11:43;5.68;;;4.00;;
49738;SDS011;53662;50.114;8.626;2023-12-28T02:14:09;4.47;;;3.30;;
49738;SDS011;53662;50.114;8.626;2023-12-28T02:16:39;9.60;;;4.07;;
49738;SDS011;53662;50.114;8.626;2023-12-28T02:19:13;7.05;;;4.10;;
49738;SDS011;53662;50.114;8.626;2023-12-28T02:21:43;8.18;;;3.20;;
49738;SDS011;53662;50.114;8.626;2023-12-28T02:24:09;5.30;;;3.70;;
49738;SDS011;53662;50.114;8.626;2023-12-28T02:26:35;4.75;;;3.45;;
49738;SDS011;53662;50.114;8.626;2023-12-28T02:29:01;5.93;;;3.83;;
49738;SDS011;53662;50.114;8.626;2023-12-28T02:31:28;4.40;;;3.20;;
49738;SDS011;53662;50.114;8.626;2023-12-28T02:33:58;3.95;;;3.47;;
49738;SDS011;53662;50.114;8.626;2023-12-28T02:36:25;3.72;;;3.35;;
49738;SDS011;53662;50.114;8.626;2023-12-28T02:38:52;5.30;;;3.45;;
49738;SDS011;53662;50.114;8.626;2023-12-28T02:41:20;9.02;;;3.50;;
49738;SDS011;53662;50.114;8.626;2023-12-28T02:43:47;6.28;;;3.08;;
49738;SDS011;53662;50.114;8.626;2023-12-28T02:46:13;4.97;;;3.10;;
49738;SDS011;53662;50.114;8.626;2023-12-28T02:48:39;4.07;;;3.30;;
49738;SDS011;53662;50.114;8.626;2023-12-28T02:51:05;4.03;;;3.38;;
49738;SDS011;53662;50.114;8.626;2023-12-28T02:53:31;4.60;;;3.28;;
49738;SDS011;53662;50.114;8.626;2023-12-28T02:55:57;3.55;;;2.80;;
49738;SDS011;53662;50.114;8.626;2023-12-28T02:58:23;6.22;;;3.80;;
49738;SDS011;53662;50.114;8.626;2023-12-28T03:00:49;4.75;;;3.35;;
49738;SDS011;53662;50.114;8.626;2023-12-28T03:03:15;5.45;;;3.13;;
49738;SDS011;53662;50.114;8.626;2023-12-28T03:05:41;5.97;;;3.72;;
49738;SDS011;53662;50.114;8.626;2023-12-28T03:08:07;11.35;;;3.25;;
49738;SDS011;53662;50.114;8.626;2023-12-28T03:10:33;5.10;;;2.90;;
49738;SDS011;53662;50.114;8.626;2023-12-28T03:12:59;4.82;;;3.28;;
49738;SDS011;53662;50.114;8.626;2023-12-28T03:15:25;5.43;;;3.45;;
49738;SDS011;53662;50.114;8.626;2023-12-28T03:17:51;10.77;;;3.80;;
49738;SDS011;53662;50.114;8.626;2023-12-28T03:20:17;6.72;;;3.15;;
49738;SDS011;53662;50.114;8.626;2023-12-28T03:22:43;4.00;;;3.22;;
49738;SDS011;53662;50.114;8.626;2023-12-28T03:25:09;4.57;;;2.88;;
49738;SDS011;53662;50.114;8.626;2023-12-28T03:27:35;6.00;;;3.35;;
49738;SDS011;53662;50.114;8.626;2023-12-28T03:30:01;4.20;;;3.20;;
49738;SDS011;53662;50.114;8.626;2023-12-28T03:32:27;6.03;;;3.13;;
49738;SDS011;53662;50.114;8.626;2023-12-28T03:34:53;3.25;;;2.83;;
49738;SDS011;53662;50.114;8.626;2023-12-28T03:37:19;6.40;;;3.47;;
49738;SDS011;53662;50.114;8.626;2023-12-28T03:39:45;3.83;;;3.28;;
49738;SDS011;53662;50.114;8.626;2023-12-28T03:42:10;2.97;;;2.63;;
49738;SDS011;53662;50.114;8.626;2023-12-28T03:44:36;3.22;;;2.83;;
49738;SDS011;53662;50.114;8.626;2023-12-28T03:47:02;4.13;;;3.05;;
49738;SDS011;53662;50.114;8.626;2023-12-28T03:49:28;8.30;;;3.05;;
49738;SDS011;53662;50.114;8.626;2023-12-28T03:51:54;5.05;;;3.20;;
49738;SDS011;53662;50.114;8.626;2023-12-28T03:54:20;3.20;;;3.00;;
49738;SDS011;53662;50.114;8.626;2023-12-28T03:56:46;7.10;;;3.50;;
49738;SDS011;53662;50.114;8.626;2023-12-28T03:59:12;5.65;;;3.42;;
49738;SDS011;53662;50.114;8.626;2023-12-28T04:01:40;5.88;;;2.92;;
49738;SDS011;53662;50.114;8.626;2023-12-28T04:04:06;2.75;;;2.58;;
49738;SDS011;53662;50.114;8.626;2023-12-28T04:06:32;4.63;;;2.85;;
49738;SDS011;53662;50.114;8.626;2023-12-28T04:08:58;4.03;;;3.20;;
49738;SDS011;53662;50.114;8.626;2023-12-28T04:11:23;2.75;;;2.55;;
49738;SDS011;53662;50.114;8.626;2023-12-28T04:13:49;5.15;;;3.45;;
49738;SDS011;53662;50.114;8.626;2023-12-28T04:16:15;4.72;;;3.13;;
49738;SDS011;53662;50.114;8.626;2023-12-28T04:18:42;3.38;;;2.90;;
49738;SDS011;53662;50.114;8.626;2023-12-28T04:21:08;4.30;;;2.83;;
49738;SDS011;53662;50.114;8.626;2023-12-28T04:23:35;2.95;;;2.60;;
49738;SDS011;53662;50.114;8.626;2023-12-28T04:26:01;2.65;;;2.38;;
49738;SDS011;53662;50.114;8.626;2023-12-28T04:28:27;3.00;;;2.70;;
49738;SDS011;53662;50.114;8.626;2023-12-28T04:30:53;3.28;;;2.70;;
49738;SDS011;53662;50.114;8.626;2023-12-28T04:33:19;5.38;;;2.42;;
49738;SDS011;53662;50.114;8.626;2023-12-28T04:35:45;3.00;;;2.78;;
49738;SDS011;53662;50.114;8.626;2023-12-28T04:38:12;3.55;;;2.45;;
49738;SDS011;53662;50.114;8.626;2023-12-28T04:40:38;5.97;;;3.15;;
49738;SDS011;53662;50.114;8.626;2023-12-28T04:43:04;3.55;;;3.03;;
49738;SDS011;53662;50.114;8.626;2023-12-28T04:45:30;6.10;;;2.90;;
49738;SDS011;53662;50.114;8.626;2023-12-28T04:47:55;2.70;;;2.50;;
49738;SDS011;53662;50.114;8.626;2023-12-28T04:50:21;5.10;;;2.53;;
49738;SDS011;53662;50.114;8.626;2023-12-28T04:52:47;2.88;;;2.17;;
49738;SDS011;53662;50.114;8.626;2023-12-28T04:55:13;3.13;;;2.83;;
49738;SDS011;53662;50.114;8.626;2023-12-28T04:57:40;3.25;;;2.33;;
49738;SDS011;53662;50.114;8.626;2023-12-28T05:00:07;6.25;;;2.88;;
49738;SDS011;53662;50.114;8.626;2023-12-28T05:02:33;2.60;;;2.30;;
49738;SDS011;53662;50.114;8.626;2023-12-28T05:04:59;4.93;;;2.72;;
49738;SDS011;53662;50.114;8.626;2023-12-28T05:07:25;7.28;;;2.80;;
49738;SDS011;53662;50.114;8.626;2023-12-28T05:09:51;2.65;;;2.45;;
49738;SDS011;53662;50.114;8.626;2023-12-28T05:12:17;3.03;;;2.83;;
49738;SDS011;53662;50.114;8.626;2023-12-28T05:14:43;5.10;;;3.10;;
49738;SDS011;53662;50.114;8.626;2023-12-28T05:17:09;3.42;;;2.28;;
49738;SDS011;53662;50.114;8.626;2023-12-28T05:19:35;6.28;;;2.75;;
49738;SDS011;53662;50.114;8.626;2023-12-28T05:22:01;2.63;;;2.25;;
49738;SDS011;53662;50.114;8.626;2023-12-28T05:24:32;5.93;;;2.85;;
49738;SDS011;53662;50.114;8.626;2023-12-28T05:26:58;2.70;;;2.50;;
49738;SDS011;53662;50.114;8.626;2023-12-28T05:29:24;3.03;;;2.47;;
49738;SDS011;53662;50.114;8.626;2023-12-28T05:31:50;2.72;;;2.53;;
49738;SDS011;53662;50.114;8.626;2023-12-28T05:34:16;3.17;;;2.85;;
49738;SDS011;53662;50.114;8.626;2023-12-28T05:36:42;3.90;;;2.15;;
49738;SDS011;53662;50.114;8.626;2023-12-28T05:39:10;3.40;;;2.22;;
49738;SDS011;53662;50.114;8.626;2023-12-28T05:41:38;3.72;;;1.98;;
49738;SDS011;53662;50.114;8.626;2023-12-28T05:44:04;2.10;;;2.00;;
49738;SDS011;53662;50.114;8.626;2023-12-28T05:46:30;3.30;;;1.95;;
49738;SDS011;53662;50.114;8.626;2023-12-28T05:48:56;4.75;;;2.55;;
49738;SDS011;53662;50.114;8.626;2023-12-28T05:51:22;2.53;;;2.33;;
49738;SDS011;53662;50.114;8.626;2023-12-28T05:53:48;2.47;;;2.28;;
49738;SDS011;53662;50.114;8.626;2023-12-28T05:56:14;2.67;;;2.47;;
49738;SDS011;53662;50.114;8.626;2023-12-28T05:58:40;2.53;;;2.33;;
49738;SDS011;53662;50.114;8.626;2023-12-28T06:01:06;2.83;;;2.00;;
49738;SDS011;53662;50.114;8.626;2023-12-28T06:03:32;2.45;;;2.30;;
49738;SDS011;53662;50.114;8.626;2023-12-28T06:05:58;3.80;;;2.38;;
49738;SDS011;53662;50.114;8.626;2023-12-28T06:08:24;4.82;;;2.80;;
49738;SDS011;53662;50.114;8.626;2023-12-28T06:10:50;4.90;;;2.38;;
49738;SDS011;53662;50.114;8.626;2023-12-28T06:13:16;4.07;;;2.78;;
49738;SDS011;53662;50.114;8.626;2023-12-28T06:15:42;6.20;;;2.40;;
49738;SDS011;53662;50.114;8.626;2023-12-28T06:18:08;4.03;;;2.53;;
49738;SDS011;53662;50.114;8.626;2023-12-28T06:20:34;3.33;;;2.70;;
49738;SDS011;53662;50.114;8.626;2023-12-28T06:23:01;2.72;;;2.47;;
49738;SDS011;53662;50.114;8.626;2023-12-28T06:25:27;2.42;;;2.13;;
49738;SDS011;53662;50.114;8.626;2023-12-28T06:27:53;2.05;;;1.90;;
49738;SDS011;53662;50.114;8.626;2023-12-28T06:30:19;2.50;;;2.20;;
49738;SDS011;53662;50.114;8.626;2023-12-28T06:32:45;4.13;;;2.40;;
49738;SDS011;53662;50.114;8.626;2023-12-28T06:35:11;2.03;;;1.92;;
49738;SDS011;53662;50.114;8.626;2023-12-28T06:37:37;3.40;;;2.35;;
49738;SDS011;53662;50.114;8.626;2023-12-28T06:40:03;3.78;;;2.70;;
49738;SDS011;53662;50.114;8.626;2023-12-28T06:42:29;2.45;;;2.25;;
49738;SDS011;53662;50.114;8.626;2023-12-28T06:44:55;2.20;;;2.00;;
49738;SDS011;53662;50.114;8.626;2023-12-28T06:47:21;2.17;;;1.98;;
49738;SDS011;53662;50.114;8.626;2023-12-28T06:49:47;3.72;;;2.13;;
49738;SDS011;53662;50.114;8.626;2023-12-28T06:52:13;2.13;;;1.90;;
49738;SDS011;53662;50.114;8.626;2023-12-28T06:54:39;3.15;;;2.00;;
49738;SDS011;53662;50.114;8.626;2023-12-28T06:57:05;3.60;;;2.33;;
49738;SDS011;53662;50.114;8.626;2023-12-28T06:59:31;1.80;;;1.70;;
49738;SDS011;53662;50.114;8.626;2023-12-28T07:01:57;1.95;;;1.85;;
49738;SDS011;53662;50.114;8.626;2023-12-28T07:04:22;2.67;;;1.70;;
49738;SDS011;53662;50.114;8.626;2023-12-28T07:06:50;1.92;;;1.58;;
49738;SDS011;53662;50.114;8.626;2023-12-28T07:09:16;1.98;;;1.58;;
49738;SDS011;53662;50.114;8.626;2023-12-28T07:11:43;3.88;;;1.85;;
49738;SDS011;53662;50.114;8.626;2023-12-28T07:14:08;1.27;;;1.20;;
49738;SDS011;53662;50.114;8.626;2023-12-28T07:16:34;7.38;;;1.30;;
49738;SDS011;53662;50.114;8.626;2023-12-28T07:19:00;4.55;;;1.50;;
49738;SDS011;53662;50.114;8.626;2023-12-28T07:21:26;3.38;;;1.75;;
49738;SDS011;53662;50.114;8.626;2023-12-28T07:23:52;1.48;;;1.38;;
49738;SDS011;53662;50.114;8.626;2023-12-28T07:26:18;1.63;;;1.10;;
49738;SDS011;53662;50.114;8.626;2023-12-28T07:28:44;2.72;;;1.40;;
49738;SDS011;53662;50.114;8.626;2023-12-28T07:31:21;1.65;;;1.50;;
49738;SDS011;53662;50.114;8.626;2023-12-28T07:33:47;1.48;;;1.05;;
49738;SDS011;53662;50.114;8.626;2023-12-28T07:36:13;1.77;;;1.33;;
49738;SDS011;53662;50.114;8.626;2023-12-28T07:38:39;3.33;;;1.70;;
49738;SDS011;53662;50.114;8.626;2023-12-28T07:41:05;1.75;;;1.65;;
49738;SDS011;53662;50.114;8.626;2023-12-28T07:43:31;1.80;;;1.40;;
49738;SDS011;53662;50.114;8.626;2023-12-28T07:45:57;1.40;;;1.30;;
49738;SDS011;53662;50.114;8.626;2023-12-28T07:48:23;1.98;;;1.63;;
49738;SDS011;53662;50.114;8.626;2023-12-28T07:50:49;1.42;;;1.10;;
49738;SDS011;53662;50.114;8.626;2023-12-28T07:53:16;1.80;;;1.60;;
49738;SDS011;53662;50.114;8.626;2023-12-28T07:55:42;2.55;;;1.83;;
49738;SDS011;53662;50.114;8.626;2023-12-28T07:58:09;2.45;;;1.70;;
49738;SDS011;53662;50.114;8.626;2023-12-28T08:00:34;1.42;;;1.33;;
49738;SDS011;53662;50.114;8.626;2023-12-28T08:03:00;1.60;;;1.50;;
49738;SDS011;53662;50.114;8.626;2023-12-28T08:05:26;2.65;;;1.70;;
49738;SDS011;53662;50.114;8.626;2023-12-28T08:07:52;1.85;;;1.45;;
49738;SDS011;53662;50.114;8.626;2023-12-28T08:10:18;2.35;;;1.48;;
49738;SDS011;53662;50.114;8.626;2023-12-28T08:12:44;2.25;;;2.00;;
49738;SDS011;53662;50.114;8.626;2023-12-28T08:15:10;3.55;;;1.67;;
49738;SDS011;53662;50.114;8.626;2023-12-28T08:17:36;1.88;;;1.77;;
49738;SDS011;53662;50.114;8.626;2023-12-28T08:20:03;1.85;;;1.75;;
49738;SDS011;53662;50.114;8.626;2023-12-28T08:22:29;2.53;;;1.80;;
49738;SDS011;53662;50.114;8.626;2023-12-28T08:24:56;1.83;;;1.67;;
49738;SDS011;53662;50.114;8.626;2023-12-28T08:27:22;2.92;;;1.75;;
49738;SDS011;53662;50.114;8.626;2023-12-28T08:29:48;2.08;;;1.70;;
49738;SDS011;53662;50.114;8.626;2023-12-28T08:32:14;1.85;;;1.67;;
49738;SDS011;53662;50.114;8.626;2023-12-28T08:34:42;4.57;;;2.15;;
49738;SDS011;53662;50.114;8.626;2023-12-28T08:37:08;6.10;;;1.70;;
49738;SDS011;53662;50.114;8.626;2023-12-28T08:39:34;2.47;;;1.60;;
49738;SDS011;53662;50.114;8.626;2023-12-28T08:41:59;3.28;;;1.73;;
49738;SDS011;53662;50.114;8.626;2023-12-28T08:44:25;3.42;;;2.25;;
49738;SDS011;53662;50.114;8.626;2023-12-28T08:46:52;4.40;;;1.75;;
49738;SDS011;53662;50.114;8.626;2023-12-28T08:49:18;3.25;;;1.85;;
49738;SDS011;53662;50.114;8.626;2023-12-28T08:51:43;5.55;;;2.17;;
49738;SDS011;53662;50.114;8.626;2023-12-28T08:54:09;2.78;;;1.95;;
49738;SDS011;53662;50.114;8.626;2023-12-28T08:56:35;1.77;;;1.65;;
49738;SDS011;53662;50.114;8.626;2023-12-28T08:59:01;4.13;;;2.10;;
49738;SDS011;53662;50.114;8.626;2023-12-28T09:01:28;5.93;;;2.00;;
49738;SDS011;53662;50.114;8.626;2023-12-28T09:03:54;2.53;;;2.03;;
49738;SDS011;53662;50.114;8.626;2023-12-28T09:06:20;2.28;;;2.13;;
49738;SDS011;53662;50.114;8.626;2023-12-28T09:08:48;3.13;;;1.95;;
49738;SDS011;53662;50.114;8.626;2023-12-28T09:11:15;3.05;;;2.10;;
49738;SDS011;53662;50.114;8.626;2023-12-28T09:13:41;2.88;;;1.90;;
49738;SDS011;53662;50.114;8.626;2023-12-28T09:16:07;5.18;;;2.03;;
49738;SDS011;53662;50.114;8.626;2023-12-28T09:18:35;7.88;;;2.20;;
49738;SDS011;53662;50.114;8.626;2023-12-28T09:21:04;3.17;;;1.92;;
49738;SDS011;53662;50.114;8.626;2023-12-28T09:23:30;3.05;;;1.80;;
49738;SDS011;53662;50.114;8.626;2023-12-28T09:25:56;3.35;;;1.75;;
49738;SDS011;53662;50.114;8.626;2023-12-28T09:28:23;2.03;;;1.77;;
49738;SDS011;53662;50.114;8.626;2023-12-28T09:30:49;1.65;;;1.35;;
49738;SDS011;53662;50.114;8.626;2023-12-28T09:33:15;3.58;;;1.70;;
49738;SDS011;53662;50.114;8.626;2023-12-28T09:35:41;3.00;;;1.88;;
49738;SDS011;53662;50.114;8.626;2023-12-28T09:38:07;5.45;;;1.85;;
49738;SDS011;53662;50.114;8.626;2023-12-28T09:40:33;2.83;;;1.73;;
49738;SDS011;53662;50.114;8.626;2023-12-28T09:45:47;5.13;;;2.10;;
49738;SDS011;53662;50.114;8.626;2023-12-28T09:48:16;4.40;;;1.92;;
49738;SDS011;53662;50.114;8.626;2023-12-28T09:50:43;4.22;;;2.20;;
49738;SDS011;53662;50.114;8.626;2023-12-28T09:53:09;1.92;;;1.70;;
49738;SDS011;53662;50.114;8.626;2023-12-28T09:55:35;4.50;;;1.90;;
49738;SDS011;53662;50.114;8.626;2023-12-28T09:58:01;4.43;;;2.13;;
49738;SDS011;53662;50.114;8.626;2023-12-28T10:00:30;2.67;;;1.80;;
49738;SDS011;53662;50.114;8.626;2023-12-28T10:02:56;2.92;;;2.45;;
49738;SDS011;53662;50.114;8.626;2023-12-28T10:05:22;3.92;;;1.60;;
49738;SDS011;53662;50.114;8.626;2023-12-28T10:07:50;3.47;;;1.80;;
49738;SDS011;53662;50.114;8.626;2023-12-28T10:10:16;5.47;;;2.03;;
49738;SDS011;53662;50.114;8.626;2023-12-28T10:12:42;3.03;;;1.92;;
49738;SDS011;53662;50.114;8.626;2023-12-28T10:15:08;1.65;;;1.55;;
49738;SDS011;53662;50.114;8.626;2023-12-28T10:17:34;1.52;;;1.23;;
49738;SDS011;53662;50.114;8.626;2023-12-28T10:20:01;3.35;;;1.48;;
49738;SDS011;53662;50.114;8.626;2023-12-28T10:22:28;1.85;;;1.65;;
49738;SDS011;53662;50.114;8.626;2023-12-28T10:24:54;2.50;;;1.50;;
49738;SDS011;53662;50.114;8.626;2023-12-28T10:27:20;2.28;;;1.58;;
49738;SDS011;53662;50.114;8.626;2023-12-28T10:29:46;1.67;;;1.55;;
49738;SDS011;53662;50.114;8.626;2023-12-28T10:32:13;2.00;;;1.90;;
49738;SDS011;53662;50.114;8.626;2023-12-28T10:34:39;3.60;;;1.80;;
49738;SDS011;53662;50.114;8.626;2023-12-28T10:37:05;1.75;;;1.65;;
49738;SDS011;53662;50.114;8.626;2023-12-28T10:39:31;3.30;;;1.70;;
49738;SDS011;53662;50.114;8.626;2023-12-28T10:41:59;2.70;;;1.98;;
49738;SDS011;53662;50.114;8.626;2023-12-28T10:44:30;3.45;;;1.55;;
49738;SDS011;53662;50.114;8.626;2023-12-28T10:46:57;2.38;;;2.00;;
49738;SDS011;53662;50.114;8.626;2023-12-28T10:49:24;3.20;;;2.00;;
49738;SDS011;53662;50.114;8.626;2023-12-28T10:51:51;1.67;;;1.50;;
49738;SDS011;53662;50.114;8.626;2023-12-28T10:54:20;4.88;;;1.60;;
49738;SDS011;53662;50.114;8.626;2023-12-28T10:56:50;2.30;;;1.67;;
49738;SDS011;53662;50.114;8.626;2023-12-28T10:59:32;2.95;;;1.48;;
49738;SDS011;53662;50.114;8.626;2023-12-28T11:02:01;6.03;;;2.05;;
49738;SDS011;53662;50.114;8.626;2023-12-28T11:04:41;1.60;;;1.50;;
49738;SDS011;53662;50.114;8.626;2023-12-28T11:07:11;3.38;;;1.65;;
49738;SDS011;53662;50.114;8.626;2023-12-28T11:09:41;4.78;;;1.25;;
49738;SDS011;53662;50.114;8.626;2023-12-28T11:12:07;1.23;;;1.13;;
49738;SDS011;53662;50.114;8.626;2023-12-28T11:14:35;5.53;;;1.70;;
49738;SDS011;53662;50.114;8.626;2023-12-28T11:17:01;4.88;;;1.40;;
49738;SDS011;53662;50.114;8.626;2023-12-28T11:19:27;2.60;;;1.45;;
49738;SDS011;53662;50.114;8.626;2023-12-28T11:21:54;2.42;;;1.33;;
49738;SDS011;53662;50.114;8.626;2023-12-28T11:24:21;2.70;;;1.50;;
49738;SDS011;53662;50.114;8.626;2023-12-28T11:26:54;3.95;;;1.63;;
49738;SDS011;53662;50.114;8.626;2023-12-28T11:29:20;1.95;;;1.15;;
49738;SDS011;53662;50.114;8.626;2023-12-28T11:31:56;2.95;;;1.70;;
49738;SDS011;53662;50.114;8.626;2023-12-28T11:34:29;3.03;;;1.98;;
49738;SDS011;53662;50.114;8.626;2023-12-28T11:36:56;2.30;;;1.85;;
49738;SDS011;53662;50.114;8.626;2023-12-28T11:39:30;3.40;;;2.00;;
49738;SDS011;53662;50.114;8.626;2023-12-28T11:41:59;4.78;;;1.52;;
49738;SDS011;53662;50.114;8.626;2023-12-28T11:44:28;2.60;;;1.70;;
49738;SDS011;53662;50.114;8.626;2023-12-28T11:46:54;2.75;;;1.85;;
49738;SDS011;53662;50.114;8.626;2023-12-28T11:49:24;4.25;;;1.38;;
49738;SDS011;53662;50.114;8.626;2023-12-28T11:51:55;1.88;;;0.98;;
49738;SDS011;53662;50.114;8.626;2023-12-28T11:54:21;4.72;;;1.90;;
49738;SDS011;53662;50.114;8.626;2023-12-28T11:56:47;4.45;;;1.73;;
49738;SDS011;53662;50.114;8.626;2023-12-28T11:59:13;2.08;;;1.50;;
49738;SDS011;53662;50.114;8.626;2023-12-28T12:01:39;2.65;;;1.90;;
49738;SDS011;53662;50.114;8.626;2023-12-28T12:04:06;2.03;;;0.98;;
49738;SDS011;53662;50.114;8.626;2023-12-28T12:06:32;1.45;;;1.27;;
49738;SDS011;53662;50.114;8.626;2023-12-28T12:08:58;2.05;;;1.20;;
49738;SDS011;53662;50.114;8.626;2023-12-28T12:11:24;3.50;;;1.45;;
49738;SDS011;53662;50.114;8.626;2023-12-28T12:13:51;3.95;;;1.60;;
49738;SDS011;53662;50.114;8.626;2023-12-28T12:16:17;3.33;;;1.27;;
49738;SDS011;53662;50.114;8.626;2023-12-28T12:18:43;2.85;;;1.30;;
49738;SDS011;53662;50.114;8.626;2023-12-28T12:21:09;4.22;;;1.02;;
49738;SDS011;53662;50.114;8.626;2023-12-28T12:23:35;4.95;;;1.63;;
49738;SDS011;53662;50.114;8.626;2023-12-28T12:26:01;4.85;;;2.25;;
49738;SDS011;53662;50.114;8.626;2023-12-28T12:28:30;1.23;;;0.75;;
49738;SDS011;53662;50.114;8.626;2023-12-28T12:30:56;3.42;;;1.17;;
49738;SDS011;53662;50.114;8.626;2023-12-28T12:33:22;4.80;;;1.20;;
49738;SDS011;53662;50.114;8.626;2023-12-28T12:35:49;8.00;;;1.25;;
49738;SDS011;53662;50.114;8.626;2023-12-28T12:38:16;3.53;;;1.35;;
49738;SDS011;53662;50.114;8.626;2023-12-28T12:40:42;9.38;;;1.45;;
49738;SDS011;53662;50.114;8.626;2023-12-28T12:43:08;2.20;;;1.23;;
49738;SDS011;53662;50.114;8.626;2023-12-28T12:45:34;4.50;;;1.77;;
49738;SDS011;53662;50.114;8.626;2023-12-28T12:48:01;2.35;;;1.52;;
49738;SDS011;53662;50.114;8.626;2023-12-28T12:50:28;6.95;;;1.40;;
49738;SDS011;53662;50.114;8.626;2023-12-28T12:52:54;5.88;;;1.70;;
49738;SDS011;53662;50.114;8.626;2023-12-28T12:55:20;1.42;;;1.20;;
49738;SDS011;53662;50.114;8.626;2023-12-28T12:57:45;2.00;;;1.13;;
49738;SDS011;53662;50.114;8.626;2023-12-28T13:00:11;3.85;;;1.60;;
49738;SDS011;53662;50.114;8.626;2023-12-28T13:02:38;3.67;;;1.70;;
49738;SDS011;53662;50.114;8.626;2023-12-28T13:05:04;5.22;;;1.80;;
49738;SDS011;53662;50.114;8.626;2023-12-28T13:07:33;1.30;;;1.20;;
49738;SDS011;53662;50.114;8.626;2023-12-28T13:09:59;3.60;;;1.60;;
49738;SDS011;53662;50.114;8.626;2023-12-28T13:12:25;6.13;;;1.90;;
49738;SDS011;53662;50.114;8.626;2023-12-28T13:14:51;3.58;;;1.60;;
49738;SDS011;53662;50.114;8.626;2023-12-28T13:17:17;4.70;;;1.55;;
49738;SDS011;53662;50.114;8.626;2023-12-28T13:19:43;2.70;;;1.65;;
49738;SDS011;53662;50.114;8.626;2023-12-28T13:22:09;2.75;;;1.63;;
49738;SDS011;53662;50.114;8.626;2023-12-28T13:24:35;5.40;;;1.65;;
49738;SDS011;53662;50.114;8.626;2023-12-28T13:27:01;3.75;;;2.05;;
49738;SDS011;53662;50.114;8.626;2023-12-28T13:29:28;7.35;;;1.85;;
49738;SDS011;53662;50.114;8.626;2023-12-28T13:31:54;1.80;;;1.40;;
49738;SDS011;53662;50.114;8.626;2023-12-28T13:34:20;4.45;;;2.05;;
49738;SDS011;53662;50.114;8.626;2023-12-28T13:36:47;2.65;;;1.83;;
49738;SDS011;53662;50.114;8.626;2023-12-28T13:39:13;3.97;;;1.65;;
49738;SDS011;53662;50.114;8.626;2023-12-28T13:41:40;5.65;;;1.75;;
49738;SDS011;53662;50.114;8.626;2023-12-28T13:44:06;2.35;;;1.88;;
49738;SDS011;53662;50.114;8.626;2023-12-28T13:46:35;4.38;;;1.98;;
49738;SDS011;53662;50.114;8.626;2023-12-28T13:49:01;2.03;;;1.33;;
49738;SDS011;53662;50.114;8.626;2023-12-28T13:51:29;2.45;;;1.50;;
49738;SDS011;53662;50.114;8.626;2023-12-28T13:53:55;4.53;;;2.25;;
49738;SDS011;53662;50.114;8.626;2023-12-28T13:56:21;4.45;;;1.73;;
49738;SDS011;53662;50.114;8.626;2023-12-28T13:58:47;4.55;;;1.55;;
49738;SDS011;53662;50.114;8.626;2023-12-28T14:01:13;2.47;;;1.50;;
49738;SDS011;53662;50.114;8.626;2023-12-28T14:03:39;1.40;;;1.30;;
49738;SDS011;53662;50.114;8.626;2023-12-28T14:06:05;2.20;;;1.88;;
49738;SDS011;53662;50.114;8.626;2023-12-28T14:08:32;5.60;;;1.70;;
49738;SDS011;53662;50.114;8.626;2023-12-28T14:10:58;3.25;;;1.50;;
49738;SDS011;53662;50.114;8.626;2023-12-28T14:13:23;2.95;;;1.48;;
49738;SDS011;53662;50.114;8.626;2023-12-28T14:15:50;1.35;;;1.20;;
49738;SDS011;53662;50.114;8.626;2023-12-28T14:18:16;0.73;;;0.73;;
49738;SDS011;53662;50.114;8.626;2023-12-28T14:20:42;1.42;;;1.05;;
49738;SDS011;53662;50.114;8.626;2023-12-28T14:23:08;1.38;;;1.25;;
49738;SDS011;53662;50.114;8.626;2023-12-28T14:25:34;0.70;;;0.70;;
49738;SDS011;53662;50.114;8.626;2023-12-28T14:28:02;6.15;;;1.13;;
49738;SDS011;53662;50.114;8.626;2023-12-28T14:30:28;5.28;;;1.80;;
49738;SDS011;53662;50.114;8.626;2023-12-28T14:32:54;4.25;;;1.00;;
49738;SDS011;53662;50.114;8.626;2023-12-28T14:35:20;3.35;;;1.35;;
49738;SDS011;53662;50.114;8.626;2023-12-28T14:37:46;1.80;;;1.20;;
49738;SDS011;53662;50.114;8.626;2023-12-28T14:40:12;0.80;;;0.80;;
49738;SDS011;53662;50.114;8.626;2023-12-28T14:42:38;1.38;;;0.90;;
49738;SDS011;53662;50.114;8.626;2023-12-28T14:45:04;0.85;;;0.85;;